Time;durP1;ratioP1;P1;durP2;ratioP2;P2;SDS_P1;SDS_P2;PMS_P1;PMS_P2;Temp;Humidity;BMP_temperature;BMP_pressure;BME280_temperature;BME280_humidity;BME280_pressure;Samples;Min_cycle;Max_cycle;Signal;HPM_P1;HPM_P2
2021/11/07 00:00:10;;;;;;;;;;;22.50;45.50;;;;;;1524910;76;1178;-70
2021/11/07 00:02:32;;;;;;;;;;;22.60;45.50;;;;;;1525250;77;1179;-69
2021/11/07 00:04:34;;;;;;;;;;;22.50;45.50;;;;;;1522631;78;1643;-70
2021/11/07 00:06:36;;;;;;;;;;;22.60;45.50;;;;;;1521413;77;1177;-69
2021/11/07 00:10:48;;;;;;;;;;;22.50;45.60;;;;;;1528326;77;1182;-69
2021/11/07 00:12:48;;;;;;;;;;;22.50;45.60;;;;;;1523629;77;1535;-70
2021/11/07 00:14:51;;;;;;;;;;;22.60;45.60;;;;;;1522901;77;1930;-69
2021/11/07 00:16:53;;;;;;;;;;;22.50;45.60;;;;;;1525437;77;2124;-69
2021/11/07 00:19:03;;;;;;;;;;;22.50;45.60;;;;;;1526996;77;700;-69
2021/11/07 00:21:05;;;;;;;;;;;22.50;45.70;;;;;;1525434;76;2270;-74
2021/11/07 00:23:17;;;;;;;;;;;22.60;45.60;;;;;;1527128;77;1145;-72
2021/11/07 00:29:32;;;;;;;;;;;22.60;45.60;;;;;;1521241;77;1107;-70
2021/11/07 00:31:48;;;;;;;;;;;22.50;45.50;;;;;;1524704;77;1214;-70
2021/11/07 00:38:20;;;;;;;;;;;22.60;45.50;;;;;;1526650;77;1680;-69
2021/11/07 00:42:54;;;;;;;;;;;22.60;45.50;;;;;;1522084;77;856;-70
2021/11/07 00:45:03;;;;;;;;;;;22.60;46.10;;;;;;1499089;78;1580;-55
2021/11/07 00:49:32;;;;;;;;;;;22.50;45.50;;;;;;1494137;78;1655;-54
2021/11/07 00:55:49;;;;;;;;;;;22.50;45.50;;;;;;1491092;78;1228;-54
2021/11/07 00:58:12;;;;;;;;;;;22.50;45.60;;;;;;1497180;78;1553;-53
2021/11/07 01:00:15;;;;;;;;;;;22.60;45.70;;;;;;1495402;78;1651;-54
2021/11/07 01:02:27;;;;;;;;;;;22.60;45.70;;;;;;1489485;78;1657;-53
2021/11/07 01:04:30;;;;;;;;;;;22.50;45.80;;;;;;1493255;78;1130;-53
2021/11/07 01:06:32;;;;;;;;;;;22.60;45.90;;;;;;1486704;78;1101;-53
2021/11/07 01:08:34;;;;;;;;;;;22.60;45.80;;;;;;1499001;78;866;-53
2021/11/07 01:10:36;;;;;;;;;;;22.60;45.80;;;;;;1492620;78;785;-54
2021/11/07 01:12:38;;;;;;;;;;;22.60;45.90;;;;;;1492837;78;766;-54
2021/11/07 01:14:40;;;;;;;;;;;22.60;45.80;;;;;;1495699;78;1983;-54
2021/11/07 01:16:42;;;;;;;;;;;22.70;46.00;;;;;;1487606;78;1109;-54
2021/11/07 01:18:44;;;;;;;;;;;22.70;46.20;;;;;;1489899;78;837;-54
2021/11/07 01:20:46;;;;;;;;;;;22.60;46.00;;;;;;1496910;78;640;-53
2021/11/07 01:25:00;;;;;;;;;;;22.70;46.00;;;;;;1484445;78;1109;-55
2021/11/07 01:27:23;;;;;;;;;;;22.80;46.00;;;;;;1480612;78;1487;-55
2021/11/07 01:29:26;;;;;;;;;;;22.80;46.00;;;;;;1482910;78;1673;-55
2021/11/07 01:31:26;;;;;;;;;;;22.80;45.90;;;;;;1483938;78;1424;-55
2021/11/07 01:33:29;;;;;;;;;;;22.70;45.90;;;;;;1494292;78;723;-55
2021/11/07 01:35:40;;;;;;;;;;;22.90;46.00;;;;;;1485694;78;1916;-56
2021/11/07 01:37:48;;;;;;;;;;;22.90;45.90;;;;;;1483405;78;1622;-55
2021/11/07 01:39:55;;;;;;;;;;;22.90;45.90;;;;;;1500585;78;1313;-56
2021/11/07 01:42:53;;;;;;;;;;;22.80;45.70;;;;;;1493012;78;1717;-56
2021/11/07 01:44:03;;;;;;;;;;;22.90;45.70;;;;;;1487333;78;1465;-54
2021/11/07 01:48:13;;;;;;;;;;;22.80;45.50;;;;;;1497838;78;828;-54
2021/11/07 01:50:12;;;;;;;;;;;22.80;45.60;;;;;;1497741;78;1399;-54
2021/11/07 01:52:15;;;;;;;;;;;22.80;45.60;;;;;;1509950;78;726;-54
2021/11/07 01:54:22;;;;;;;;;;;22.70;45.60;;;;;;1480503;78;1907;-54
2021/11/07 01:56:20;;;;;;;;;;;22.70;45.60;;;;;;1495422;78;1194;-54
2021/11/07 01:58:22;;;;;;;;;;;22.80;45.60;;;;;;1495794;78;682;-54
2021/11/07 02:00:25;;;;;;;;;;;22.60;45.50;;;;;;1499345;78;812;-55
2021/11/07 02:02:29;;;;;;;;;;;22.80;45.60;;;;;;1485444;78;717;-55
2021/11/07 02:04:30;;;;;;;;;;;22.70;45.60;;;;;;1501598;77;1823;-53
2021/11/07 02:06:32;;;;;;;;;;;22.70;45.60;;;;;;1498149;77;1146;-53
2021/11/07 02:08:34;;;;;;;;;;;22.70;45.60;;;;;;1488117;78;776;-53
2021/11/07 02:10:36;;;;;;;;;;;22.60;45.60;;;;;;1524340;76;778;-53
2021/11/07 02:12:40;;;;;;;;;;;22.70;45.70;;;;;;1513437;77;742;-53
2021/11/07 02:14:42;;;;;;;;;;;22.70;45.70;;;;;;1529587;77;1904;-53
2021/11/07 02:16:44;;;;;;;;;;;22.70;45.70;;;;;;1528285;76;1033;-54
2021/11/07 02:18:46;;;;;;;;;;;22.60;45.70;;;;;;1519234;77;802;-53
2021/11/07 02:20:48;;;;;;;;;;;22.70;45.70;;;;;;1515197;77;773;-53
2021/11/07 02:22:50;;;;;;;;;;;22.60;45.70;;;;;;1492078;78;713;-53
2021/11/07 02:24:52;;;;;;;;;;;22.70;45.80;;;;;;1518595;77;1179;-54
2021/11/07 02:26:55;;;;;;;;;;;22.60;45.70;;;;;;1517968;77;795;-53
2021/11/07 02:28:59;;;;;;;;;;;22.70;45.90;;;;;;1529868;77;1009;-54
2021/11/07 02:31:02;;;;;;;;;;;22.70;46.00;;;;;;1511105;76;3167;-58
2021/11/07 02:33:04;;;;;;;;;;;22.70;46.00;;;;;;1514613;77;663;-59
2021/11/07 02:35:06;;;;;;;;;;;22.70;46.00;;;;;;1515035;77;1941;-59
2021/11/07 02:37:08;;;;;;;;;;;22.70;46.00;;;;;;1505712;77;714;-59
2021/11/07 02:39:13;;;;;;;;;;;22.70;46.00;;;;;;1506124;77;787;-58
2021/11/07 02:41:16;;;;;;;;;;;22.70;46.00;;;;;;1508496;77;676;-58
2021/11/07 02:43:17;;;;;;;;;;;22.70;46.00;;;;;;1504707;77;739;-59
2021/11/07 02:45:20;;;;;;;;;;;22.70;46.10;;;;;;1502499;77;1109;-58
2021/11/07 02:47:22;;;;;;;;;;;22.70;46.00;;;;;;1505648;77;789;-58
2021/11/07 02:49:24;;;;;;;;;;;22.70;46.00;;;;;;1508225;77;742;-58
2021/11/07 02:51:27;;;;;;;;;;;22.70;46.00;;;;;;1506732;78;771;-57
2021/11/07 02:53:29;;;;;;;;;;;22.70;46.00;;;;;;1512287;77;832;-58
2021/11/07 02:55:31;;;;;;;;;;;22.70;46.00;;;;;;1540147;75;1938;-58
2021/11/07 02:57:32;;;;;;;;;;;22.70;46.00;;;;;;1542776;75;796;-58
2021/11/07 02:59:37;;;;;;;;;;;22.60;45.80;;;;;;1541147;75;770;-58
2021/11/07 03:01:38;;;;;;;;;;;22.70;46.00;;;;;;1540108;75;1662;-58
2021/11/07 03:03:40;;;;;;;;;;;22.60;45.90;;;;;;1545093;75;793;-57
2021/11/07 03:05:42;;;;;;;;;;;22.70;46.00;;;;;;1549623;75;1138;-59
2021/11/07 03:07:44;;;;;;;;;;;22.60;45.90;;;;;;1546850;75;767;-58
2021/11/07 03:09:45;;;;;;;;;;;22.70;46.00;;;;;;1545625;75;735;-58
2021/11/07 03:11:47;;;;;;;;;;;22.70;45.90;;;;;;1541332;75;765;-58
2021/11/07 03:13:50;;;;;;;;;;;22.60;45.90;;;;;;1539199;77;908;-59
2021/11/07 03:15:52;;;;;;;;;;;22.70;46.00;;;;;;1537996;77;1916;-58
2021/11/07 03:17:54;;;;;;;;;;;22.60;45.90;;;;;;1537414;75;759;-58
2021/11/07 03:19:56;;;;;;;;;;;22.70;46.00;;;;;;1543359;76;729;-58
2021/11/07 03:21:58;;;;;;;;;;;22.60;46.00;;;;;;1545232;76;732;-58
2021/11/07 03:24:00;;;;;;;;;;;22.70;46.10;;;;;;1537991;75;709;-58
2021/11/07 03:26:07;;;;;;;;;;;22.70;46.10;;;;;;1529472;76;1158;-58
2021/11/07 03:28:06;;;;;;;;;;;22.70;46.10;;;;;;1538472;75;1631;-58
2021/11/07 03:30:14;;;;;;;;;;;22.70;46.20;;;;;;1536664;75;719;-59
2021/11/07 03:32:19;;;;;;;;;;;22.70;46.20;;;;;;1541699;75;1792;-58
2021/11/07 03:34:31;;;;;;;;;;;22.70;46.30;;;;;;1539113;75;1612;-58
2021/11/07 03:36:43;;;;;;;;;;;22.80;46.30;;;;;;1540260;75;1913;-59
2021/11/07 03:38:36;;;;;;;;;;;22.80;46.30;;;;;;1538928;75;1618;-60
2021/11/07 03:40:38;;;;;;;;;;;22.80;46.30;;;;;;1541369;75;735;-60
2021/11/07 03:42:40;;;;;;;;;;;22.90;46.30;;;;;;1541928;75;728;-59
2021/11/07 03:44:42;;;;;;;;;;;23.00;46.00;;;;;;1542442;75;727;-58
2021/11/07 03:46:44;;;;;;;;;;;23.10;46.10;;;;;;1540104;75;1169;-59
2021/11/07 03:48:46;;;;;;;;;;;23.10;45.90;;;;;;1540219;75;760;-58
2021/11/07 03:50:48;;;;;;;;;;;23.10;45.80;;;;;;1541999;75;723;-58
2021/11/07 03:52:51;;;;;;;;;;;23.10;45.70;;;;;;1539854;75;708;-59
2021/11/07 03:54:53;;;;;;;;;;;23.10;45.60;;;;;;1540029;75;1905;-58
2021/11/07 03:56:54;;;;;;;;;;;23.20;45.60;;;;;;1541482;75;763;-60
2021/11/07 03:58:56;;;;;;;;;;;23.10;45.60;;;;;;1538052;75;719;-60
2021/11/07 04:00:58;;;;;;;;;;;23.10;45.60;;;;;;1541280;75;693;-58
2021/11/07 04:03:00;;;;;;;;;;;23.10;45.60;;;;;;1541357;75;672;-59
2021/11/07 04:05:02;;;;;;;;;;;23.20;45.60;;;;;;1537580;75;1130;-59
2021/11/07 04:07:04;;;;;;;;;;;23.10;45.70;;;;;;1538107;75;783;-59
2021/11/07 04:09:09;;;;;;;;;;;23.20;45.50;;;;;;1532358;75;743;-60
2021/11/07 04:11:09;;;;;;;;;;;23.20;45.30;;;;;;1541829;75;1749;-58
2021/11/07 04:13:11;;;;;;;;;;;23.30;45.40;;;;;;1539051;75;685;-59
2021/11/07 04:15:13;;;;;;;;;;;23.20;45.40;;;;;;1536379;75;1930;-58
2021/11/07 04:17:15;;;;;;;;;;;23.20;45.50;;;;;;1541851;75;712;-60
2021/11/07 04:19:17;;;;;;;;;;;23.30;45.50;;;;;;1538716;75;757;-58
2021/11/07 04:21:20;;;;;;;;;;;23.20;45.40;;;;;;1541417;75;757;-58
2021/11/07 04:23:22;;;;;;;;;;;23.20;45.40;;;;;;1538479;75;811;-58
2021/11/07 04:25:24;;;;;;;;;;;23.20;45.30;;;;;;1538546;75;1074;-58
2021/11/07 04:27:26;;;;;;;;;;;23.20;45.50;;;;;;1541726;76;781;-58
2021/11/07 04:29:28;;;;;;;;;;;23.20;45.60;;;;;;1538405;75;773;-59
2021/11/07 04:31:30;;;;;;;;;;;23.10;45.60;;;;;;1539080;75;770;-58
2021/11/07 04:33:32;;;;;;;;;;;23.20;45.50;;;;;;1539887;75;782;-58
2021/11/07 04:36:36;;;;;;;;;;;23.20;45.50;;;;;;1599613;72;1178;-60
2021/11/07 04:38:38;;;;;;;;;;;23.20;45.40;;;;;;1562846;75;795;-60
2021/11/07 04:40:40;;;;;;;;;;;23.30;45.50;;;;;;1552907;75;829;-61
2021/11/07 04:42:42;;;;;;;;;;;23.30;45.50;;;;;;1577512;75;788;-59
2021/11/07 04:44:44;;;;;;;;;;;23.40;45.30;;;;;;1577951;75;739;-60
2021/11/07 04:46:46;;;;;;;;;;;23.40;45.20;;;;;;1556587;75;1140;-60
2021/11/07 04:48:48;;;;;;;;;;;23.40;45.20;;;;;;1574223;75;671;-60
2021/11/07 04:50:50;;;;;;;;;;;23.50;45.20;;;;;;1552906;75;661;-60
2021/11/07 04:52:53;;;;;;;;;;;23.50;45.20;;;;;;1549963;75;786;-60
2021/11/07 04:54:55;;;;;;;;;;;23.40;45.00;;;;;;1556813;75;1917;-59
2021/11/07 04:56:57;;;;;;;;;;;23.50;45.10;;;;;;1563304;75;613;-59
2021/11/07 04:58:59;;;;;;;;;;;23.50;45.00;;;;;;1539334;75;699;-60
2021/11/07 05:01:02;;;;;;;;;;;23.50;44.90;;;;;;1572201;75;727;-60
2021/11/07 05:03:04;;;;;;;;;;;23.50;44.90;;;;;;1562572;75;785;-59
2021/11/07 05:05:07;;;;;;;;;;;23.50;44.90;;;;;;1547812;75;1164;-60
2021/11/07 05:07:09;;;;;;;;;;;23.50;44.80;;;;;;1586158;75;764;-59
2021/11/07 05:09:10;;;;;;;;;;;23.50;44.90;;;;;;1546169;75;734;-59
2021/11/07 05:11:12;;;;;;;;;;;23.50;45.00;;;;;;1570823;74;811;-59
2021/11/07 05:13:14;;;;;;;;;;;23.50;44.90;;;;;;1561428;75;732;-60
2021/11/07 05:15:16;;;;;;;;;;;23.50;45.00;;;;;;1534693;75;1920;-60
2021/11/07 05:17:18;;;;;;;;;;;23.50;45.00;;;;;;1546291;75;756;-59
2021/11/07 05:19:20;;;;;;;;;;;23.40;44.90;;;;;;1543973;75;760;-59
2021/11/07 05:21:23;;;;;;;;;;;23.40;44.80;;;;;;1548481;75;743;-59
2021/11/07 05:23:25;;;;;;;;;;;23.50;45.00;;;;;;1552618;75;745;-60
2021/11/07 05:25:27;;;;;;;;;;;23.40;44.90;;;;;;1544697;75;1099;-59
2021/11/07 05:27:29;;;;;;;;;;;23.50;45.00;;;;;;1543825;75;789;-59
2021/11/07 05:29:31;;;;;;;;;;;23.50;45.00;;;;;;1559936;75;666;-59
2021/11/07 05:31:33;;;;;;;;;;;23.40;44.90;;;;;;1539109;76;724;-59
2021/11/07 05:33:35;;;;;;;;;;;23.40;44.90;;;;;;1556858;75;718;-58
2021/11/07 05:35:37;;;;;;;;;;;23.30;45.00;;;;;;1548481;74;1917;-59
2021/11/07 05:37:39;;;;;;;;;;;23.40;45.00;;;;;;1577953;74;688;-60
2021/11/07 05:39:41;;;;;;;;;;;23.30;45.10;;;;;;1577184;74;766;-59
2021/11/07 05:41:42;;;;;;;;;;;23.40;45.00;;;;;;1566898;74;661;-59
2021/11/07 05:43:44;;;;;;;;;;;23.40;45.00;;;;;;1571389;74;737;-60
2021/11/07 05:45:46;;;;;;;;;;;23.40;45.10;;;;;;1558601;74;1201;-59
2021/11/07 05:47:50;;;;;;;;;;;23.40;45.10;;;;;;1563550;74;756;-63
2021/11/07 05:49:52;;;;;;;;;;;23.30;45.40;;;;;;1579877;74;782;-59
2021/11/07 05:51:53;;;;;;;;;;;23.30;45.30;;;;;;1567952;75;814;-59
2021/11/07 05:53:56;;;;;;;;;;;23.30;45.40;;;;;;1567612;74;793;-59
2021/11/07 05:55:57;;;;;;;;;;;23.20;45.30;;;;;;1572130;74;1920;-59
2021/11/07 05:57:59;;;;;;;;;;;23.20;45.40;;;;;;1572393;74;733;-58
2021/11/07 06:00:02;;;;;;;;;;;23.20;45.40;;;;;;1576715;74;746;-60
2021/11/07 06:02:03;;;;;;;;;;;23.20;45.50;;;;;;1571439;74;744;-59
2021/11/07 06:04:05;;;;;;;;;;;23.20;45.50;;;;;;1581197;74;757;-59
2021/11/07 06:06:07;;;;;;;;;;;23.20;45.50;;;;;;1567739;74;1126;-60
2021/11/07 06:08:09;;;;;;;;;;;23.20;45.50;;;;;;1567970;74;801;-58
2021/11/07 06:10:11;;;;;;;;;;;23.20;45.60;;;;;;1567764;74;778;-59
2021/11/07 06:12:14;;;;;;;;;;;23.20;45.60;;;;;;1571769;74;779;-59
2021/11/07 06:14:16;;;;;;;;;;;23.20;45.60;;;;;;1567744;74;767;-59
2021/11/07 06:16:18;;;;;;;;;;;23.30;45.60;;;;;;1568498;74;1958;-61
2021/11/07 06:18:20;;;;;;;;;;;23.20;45.50;;;;;;1572031;74;752;-60
2021/11/07 06:20:22;;;;;;;;;;;23.20;45.50;;;;;;1576074;74;744;-60
2021/11/07 06:22:24;;;;;;;;;;;23.30;45.60;;;;;;1579136;74;776;-60
2021/11/07 06:24:27;;;;;;;;;;;23.20;45.60;;;;;;1575372;74;753;-59
2021/11/07 06:26:29;;;;;;;;;;;23.30;45.70;;;;;;1575393;74;1124;-59
2021/11/07 06:28:31;;;;;;;;;;;23.30;45.60;;;;;;1577412;74;776;-59
2021/11/07 06:30:33;;;;;;;;;;;23.30;45.60;;;;;;1567921;74;679;-60
2021/11/07 06:32:35;;;;;;;;;;;23.30;45.50;;;;;;1578995;74;876;-61
2021/11/07 06:34:37;;;;;;;;;;;23.30;45.50;;;;;;1576490;74;748;-59
2021/11/07 06:36:39;;;;;;;;;;;23.30;45.50;;;;;;1566554;74;1939;-59
2021/11/07 06:38:41;;;;;;;;;;;23.20;45.50;;;;;;1561939;76;939;-59
2021/11/07 06:40:42;;;;;;;;;;;23.30;45.50;;;;;;1561042;76;702;-58
2021/11/07 06:42:44;;;;;;;;;;;23.30;45.50;;;;;;1560201;76;713;-59
2021/11/07 06:44:46;;;;;;;;;;;23.30;45.50;;;;;;1565426;76;767;-62
2021/11/07 06:46:48;;;;;;;;;;;23.30;45.50;;;;;;1561880;74;1223;-59
2021/11/07 06:48:50;;;;;;;;;;;23.30;45.50;;;;;;1561334;76;697;-59
2021/11/07 06:50:52;;;;;;;;;;;23.30;45.50;;;;;;1561114;76;741;-60
2021/11/07 06:52:54;;;;;;;;;;;23.30;45.50;;;;;;1564725;76;778;-59
2021/11/07 06:54:55;;;;;;;;;;;23.40;45.40;;;;;;1564620;74;1143;-59
2021/11/07 06:56:57;;;;;;;;;;;23.40;45.20;;;;;;1556146;76;1940;-59
2021/11/07 06:58:59;;;;;;;;;;;23.50;45.20;;;;;;1548308;76;783;-60
2021/11/07 07:01:01;;;;;;;;;;;23.50;45.20;;;;;;1553195;76;726;-60
2021/11/07 07:03:03;;;;;;;;;;;23.50;45.00;;;;;;1558056;76;702;-60
2021/11/07 07:05:06;;;;;;;;;;;23.50;45.00;;;;;;1553752;74;1124;-60
2021/11/07 07:07:08;;;;;;;;;;;23.50;45.00;;;;;;1552692;76;674;-60
2021/11/07 07:09:13;;;;;;;;;;;23.60;45.00;;;;;;1550702;76;681;-60
2021/11/07 07:11:20;;;;;;;;;;;23.60;44.90;;;;;;1566579;76;1696;-61
2021/11/07 07:13:25;;;;;;;;;;;23.50;44.90;;;;;;1561711;75;1650;-60
2021/11/07 07:15:27;;;;;;;;;;;23.60;45.00;;;;;;1554814;74;1581;-60
2021/11/07 07:17:43;;;;;;;;;;;23.60;45.00;;;;;;1563111;76;1915;-60
2021/11/07 07:26:08;;;;;;;;;;;23.50;45.00;;;;;;1566525;74;1135;-59
2021/11/07 07:31:21;;;;;;;;;;;23.50;44.90;;;;;;1546475;75;760;-60
2021/11/07 07:32:28;;;;;;;;;;;23.60;44.90;;;;;;1545897;76;1440;-60
2021/11/07 07:34:26;;;;;;;;;;;23.60;44.80;;;;;;1563655;75;1727;-60
2021/11/07 07:36:27;;;;;;;;;;;23.60;44.80;;;;;;1548849;76;1941;-60
2021/11/07 07:38:29;;;;;;;;;;;23.60;44.80;;;;;;1554088;76;685;-60
2021/11/07 07:40:31;;;;;;;;;;;23.60;44.90;;;;;;1545189;76;777;-61
2021/11/07 07:42:33;;;;;;;;;;;23.60;44.80;;;;;;1551947;76;770;-61
2021/11/07 07:44:35;;;;;;;;;;;23.60;44.80;;;;;;1554107;76;762;-60
2021/11/07 07:46:38;;;;;;;;;;;23.60;44.90;;;;;;1550206;76;1118;-60
2021/11/07 07:48:46;;;;;;;;;;;23.60;44.90;;;;;;1554981;76;762;-60
2021/11/07 07:50:46;;;;;;;;;;;23.60;45.00;;;;;;1547082;76;1762;-60
2021/11/07 07:52:48;;;;;;;;;;;23.60;45.00;;;;;;1554603;75;785;-60
2021/11/07 07:54:50;;;;;;;;;;;23.60;44.90;;;;;;1557733;76;792;-61
2021/11/07 07:56:52;;;;;;;;;;;23.60;44.90;;;;;;1551305;76;1952;-61
2021/11/07 07:58:54;;;;;;;;;;;23.60;44.90;;;;;;1555492;76;757;-61
2021/11/07 08:00:56;;;;;;;;;;;23.60;44.90;;;;;;1551385;76;798;-60
2021/11/07 08:02:58;;;;;;;;;;;23.60;45.00;;;;;;1566557;76;701;-60
2021/11/07 08:05:00;;;;;;;;;;;23.50;45.00;;;;;;1550825;76;1129;-59
2021/11/07 08:07:01;;;;;;;;;;;23.50;45.10;;;;;;1562348;76;747;-59
2021/11/07 08:09:03;;;;;;;;;;;23.40;45.10;;;;;;1547763;76;761;-59
2021/11/07 08:11:05;;;;;;;;;;;23.40;45.20;;;;;;1556356;74;672;-59
2021/11/07 08:13:07;;;;;;;;;;;23.50;45.30;;;;;;1556234;76;742;-60
2021/11/07 08:15:10;;;;;;;;;;;23.40;45.50;;;;;;1548612;76;1094;-59
2021/11/07 08:17:12;;;;;;;;;;;23.30;45.60;;;;;;1554653;76;1915;-59
2021/11/07 08:19:15;;;;;;;;;;;23.50;45.50;;;;;;1551945;76;686;-60
2021/11/07 08:21:17;;;;;;;;;;;23.50;45.30;;;;;;1566713;76;653;-60
2021/11/07 08:23:24;;;;;;;;;;;23.50;45.20;;;;;;1522518;77;813;-59
2021/11/07 08:25:26;;;;;;;;;;;23.50;45.20;;;;;;1552279;76;1171;-59
2021/11/07 08:27:28;;;;;;;;;;;23.40;45.00;;;;;;1566857;75;773;-60
2021/11/07 08:29:30;;;;;;;;;;;23.30;45.00;;;;;;1550348;76;730;-58
2021/11/07 08:31:34;;;;;;;;;;;23.50;45.10;;;;;;1564049;74;2140;-59
2021/11/07 08:33:36;;;;;;;;;;;23.40;44.90;;;;;;1574712;74;1675;-59
2021/11/07 08:35:42;;;;;;;;;;;23.40;44.90;;;;;;1576574;74;1248;-58
2021/11/07 08:38:02;;;;;;;;;;;23.50;45.00;;;;;;1590160;74;1901;-60
2021/11/07 08:40:04;;;;;;;;;;;23.50;44.80;;;;;;1578540;74;1752;-60
2021/11/07 08:42:08;;;;;;;;;;;23.50;44.80;;;;;;1580802;74;1665;-60
2021/11/07 09:00:32;;;;;;;;;;;23.40;44.70;;;;;;1591129;74;1641;-58
2021/11/07 09:02:51;;;;;;;;;;;23.40;44.50;;;;;;1590136;74;1678;-60
2021/11/07 09:07:00;;;;;;;;;;;23.50;44.60;;;;;;1589235;74;1125;-58
2021/11/07 09:08:51;;;;;;;;;;;23.50;44.50;;;;;;1586501;73;1581;-59
2021/11/07 09:10:53;;;;;;;;;;;23.50;44.40;;;;;;1588609;74;750;-58
2021/11/07 09:12:55;;;;;;;;;;;23.50;44.30;;;;;;1585308;73;790;-57
2021/11/07 09:14:57;;;;;;;;;;;23.50;44.30;;;;;;1589483;74;1148;-55
2021/11/07 09:16:58;;;;;;;;;;;23.60;44.20;;;;;;1587543;74;1929;-56
2021/11/07 09:19:01;;;;;;;;;;;23.60;44.20;;;;;;1584264;74;791;-60
2021/11/07 09:21:13;;;;;;;;;;;23.60;44.10;;;;;;1589856;73;706;-60
2021/11/07 09:25:22;;;;;;;;;;;23.50;44.00;;;;;;1589495;74;1089;-59
2021/11/07 09:27:25;;;;;;;;;;;23.50;44.20;;;;;;1587702;73;1497;-56
2021/11/07 09:29:32;;;;;;;;;;;23.50;44.30;;;;;;1590157;74;1591;-59
2021/11/07 09:34:07;;;;;;;;;;;23.50;44.50;;;;;;1589855;74;850;-59
2021/11/07 09:36:21;;;;;;;;;;;23.50;44.50;;;;;;1587081;73;1585;-59
2021/11/07 09:38:46;;;;;;;;;;;23.60;44.40;;;;;;1577736;73;1919;-59
2021/11/07 09:40:08;;;;;;;;;;;23.60;44.40;;;;;;1584925;74;1403;-58
2021/11/07 09:44:27;;;;;;;;;;;23.40;45.20;;;;;;1587594;73;865;-57
2021/11/07 09:46:41;;;;;;;;;;;23.50;46.20;;;;;;1592594;73;1144;-59
2021/11/07 09:48:42;;;;;;;;;;;23.40;46.30;;;;;;1584759;73;1583;-58
2021/11/07 09:50:44;;;;;;;;;;;23.50;46.60;;;;;;1587298;74;1673;-58
2021/11/07 09:52:52;;;;;;;;;;;23.50;46.80;;;;;;1589057;73;1657;-55
2021/11/07 09:54:54;;;;;;;;;;;23.50;46.80;;;;;;1590714;73;1441;-59
2021/11/07 09:56:54;;;;;;;;;;;23.50;46.90;;;;;;1577553;73;1914;-59
2021/11/07 09:58:58;;;;;;;;;;;23.50;46.90;;;;;;1592975;74;799;-59
2021/11/07 10:01:00;;;;;;;;;;;23.50;46.90;;;;;;1591609;74;750;-58
2021/11/07 10:03:02;;;;;;;;;;;23.60;46.80;;;;;;1591590;73;746;-56
2021/11/07 10:05:04;;;;;;;;;;;23.60;47.10;;;;;;1591057;74;1092;-59
2021/11/07 10:07:24;;;;;;;;;;;23.60;47.10;;;;;;1587303;74;737;-56
2021/11/07 10:09:31;;;;;;;;;;;23.60;47.20;;;;;;1585845;74;603;-59
2021/11/07 10:11:37;;;;;;;;;;;23.70;47.20;;;;;;1585628;74;1857;-59
2021/11/07 10:13:37;;;;;;;;;;;23.70;47.20;;;;;;1581598;73;1711;-58
2021/11/07 10:15:51;;;;;;;;;;;23.60;47.80;;;;;;1592640;74;1150;-56
2021/11/07 10:17:49;;;;;;;;;;;23.60;48.00;;;;;;1590261;74;1938;-60
2021/11/07 10:19:48;;;;;;;;;;;23.60;48.10;;;;;;1582860;74;1552;-60
2021/11/07 10:21:52;;;;;;;;;;;23.70;48.10;;;;;;1587687;73;2026;-57
2021/11/07 10:24:03;;;;;;;;;;;23.70;48.40;;;;;;1590390;74;750;-59
2021/11/07 10:26:16;;;;;;;;;;;23.70;48.10;;;;;;1591627;74;1155;-56
2021/11/07 10:28:14;;;;;;;;;;;23.70;48.20;;;;;;1590909;73;1719;-58
2021/11/07 10:30:21;;;;;;;;;;;23.70;48.40;;;;;;1577856;74;1845;-56
2021/11/07 10:32:22;;;;;;;;;;;23.60;46.90;;;;;;1585740;74;1584;-57
2021/11/07 10:41:53;;;;;;;;;;;23.20;40.70;;;;;;1579660;74;701;-57
2021/11/07 10:43:43;;;;;;;;;;;23.20;40.90;;;;;;1579844;74;1453;-59
2021/11/07 10:52:28;;;;;;;;;;;23.00;41.20;;;;;;1583196;74;1642;-59
2021/11/07 10:54:30;;;;;;;;;;;23.00;41.20;;;;;;1591082;74;897;-59
2021/11/07 10:56:32;;;;;;;;;;;23.00;41.10;;;;;;1587201;74;1155;-59
2021/11/07 10:58:35;;;;;;;;;;;22.90;41.00;;;;;;1584684;74;1938;-59
2021/11/07 11:00:38;;;;;;;;;;;22.90;40.80;;;;;;1587621;74;758;-57
2021/11/07 11:02:44;;;;;;;;;;;22.80;40.70;;;;;;1587211;74;719;-57
2021/11/07 11:05:01;;;;;;;;;;;22.90;40.90;;;;;;1585372;74;775;-55
2021/11/07 11:07:04;;;;;;;;;;;22.80;40.70;;;;;;1584864;74;694;-59
2021/11/07 11:09:26;;;;;;;;;;;22.80;40.50;;;;;;1565470;75;806;-57
2021/11/07 11:15:36;;;;;;;;;;;22.80;40.00;;;;;;1586415;74;1135;-58
2021/11/07 11:17:44;;;;;;;;;;;22.80;40.20;;;;;;1592350;73;1929;-57
2021/11/07 11:19:50;;;;;;;;;;;22.80;40.20;;;;;;1585834;74;1659;-58
2021/11/07 11:27:07;;;;;;;;;;;22.70;40.30;;;;;;1592073;73;1183;-58
2021/11/07 11:28:37;;;;;;;;;;;22.60;40.30;;;;;;1559565;73;1385;-59
2021/11/07 11:30:35;;;;;;;;;;;22.70;40.20;;;;;;1587667;74;1576;-59
2021/11/07 11:32:35;;;;;;;;;;;22.70;40.20;;;;;;1582742;74;1656;-59
2021/11/07 11:34:38;;;;;;;;;;;22.60;40.10;;;;;;1590647;74;1622;-58
2021/11/07 11:36:44;;;;;;;;;;;22.60;40.10;;;;;;1589106;74;1617;-58
2021/11/07 11:38:50;;;;;;;;;;;22.60;40.10;;;;;;1590464;74;1929;-55
2021/11/07 11:42:58;;;;;;;;;;;22.60;40.00;;;;;;1592135;74;863;-59
2021/11/07 11:44:59;;;;;;;;;;;22.60;40.00;;;;;;1588373;74;1740;-58
2021/11/07 11:58:45;;;;;;;;;;;22.50;39.80;;;;;;1591849;73;1899;-57
2021/11/07 12:00:58;;;;;;;;;;;22.50;39.70;;;;;;1591837;74;1432;-57
2021/11/07 12:03:02;;;;;;;;;;;22.50;39.00;;;;;;1591860;74;1676;-56
2021/11/07 12:05:30;;;;;;;;;;;22.40;39.10;;;;;;1590145;74;1665;-53
2021/11/07 12:07:35;;;;;;;;;;;22.50;38.90;;;;;;1590652;74;1765;-56
2021/11/07 12:09:38;;;;;;;;;;;22.40;38.90;;;;;;1590903;74;1643;-57
2021/11/07 12:11:42;;;;;;;;;;;22.40;38.70;;;;;;1590297;74;1719;-57
2021/11/07 12:15:56;;;;;;;;;;;22.30;38.90;;;;;;1587017;73;1191;-54
2021/11/07 12:18:09;;;;;;;;;;;22.30;38.90;;;;;;1592584;74;1923;-53
2021/11/07 12:20:26;;;;;;;;;;;22.40;38.90;;;;;;1591264;73;1587;-57
2021/11/07 12:22:30;;;;;;;;;;;22.30;39.00;;;;;;1580110;74;695;-59
2021/11/07 12:24:34;;;;;;;;;;;22.30;38.30;;;;;;1590526;74;789;-58
2021/11/07 12:26:36;;;;;;;;;;;22.30;38.30;;;;;;1591890;74;1164;-58
2021/11/07 12:28:44;;;;;;;;;;;22.20;38.40;;;;;;1577655;74;757;-58
2021/11/07 12:30:46;;;;;;;;;;;22.20;38.40;;;;;;1591588;74;730;-59
2021/11/07 12:32:48;;;;;;;;;;;22.20;36.90;;;;;;1592090;73;798;-58
2021/11/07 12:34:54;;;;;;;;;;;22.10;37.70;;;;;;1591466;74;764;-59
2021/11/07 12:41:44;;;;;;;;;;;22.10;38.10;;;;;;1555069;74;1704;-57
2021/11/07 12:43:47;;;;;;;;;;;22.10;38.20;;;;;;1581855;74;738;-58
2021/11/07 12:45:51;;;;;;;;;;;22.10;38.20;;;;;;1586338;74;1098;-59
2021/11/07 12:48:00;;;;;;;;;;;22.10;38.40;;;;;;1579690;74;702;-59
2021/11/07 12:50:01;;;;;;;;;;;22.00;38.10;;;;;;1578350;74;1598;-58
2021/11/07 12:52:08;;;;;;;;;;;22.00;38.10;;;;;;1588924;74;741;-57
2021/11/07 12:54:14;;;;;;;;;;;22.00;38.10;;;;;;1584902;73;712;-58
2021/11/07 12:56:18;;;;;;;;;;;22.10;38.10;;;;;;1582063;74;1174;-58
2021/11/07 12:58:19;;;;;;;;;;;22.10;38.10;;;;;;1581249;74;1927;-58
2021/11/07 13:00:21;;;;;;;;;;;22.10;38.10;;;;;;1576344;74;652;-58
2021/11/07 13:02:28;;;;;;;;;;;22.00;37.80;;;;;;1585142;73;682;-57
2021/11/07 13:04:29;;;;;;;;;;;22.10;38.00;;;;;;1573361;73;1635;-56
2021/11/07 13:06:34;;;;;;;;;;;22.00;38.00;;;;;;1587635;74;1132;-58
2021/11/07 13:08:42;;;;;;;;;;;22.00;38.20;;;;;;1572904;74;749;-59
2021/11/07 13:12:55;;;;;;;;;;;22.00;38.10;;;;;;1570957;74;883;-59
2021/11/07 13:26:11;;;;;;;;;;;21.80;34.60;;;;;;1535682;74;1918;-59
2021/11/07 13:28:20;;;;;;;;;;;21.80;35.30;;;;;;1581612;74;1639;-59
2021/11/07 13:30:20;;;;;;;;;;;21.80;35.90;;;;;;1582651;74;1640;-56
2021/11/07 13:34:32;;;;;;;;;;;21.70;36.40;;;;;;1589920;73;855;-59
2021/11/07 13:36:42;;;;;;;;;;;21.70;36.60;;;;;;1569580;74;1161;-58
2021/11/07 13:39:03;;;;;;;;;;;21.70;36.90;;;;;;1586710;73;1901;-59
2021/11/07 13:40:57;;;;;;;;;;;21.70;37.10;;;;;;1580643;74;1509;-59
2021/11/07 13:43:03;;;;;;;;;;;21.70;37.00;;;;;;1591040;73;927;-59
2021/11/07 13:45:06;;;;;;;;;;;21.70;37.30;;;;;;1579855;74;1148;-58
2021/11/07 13:47:08;;;;;;;;;;;21.70;37.20;;;;;;1586411;74;712;-57
2021/11/07 13:49:10;;;;;;;;;;;21.70;37.30;;;;;;1586214;74;782;-55
2021/11/07 13:51:12;;;;;;;;;;;21.70;37.50;;;;;;1586417;74;669;-59
2021/11/07 13:53:24;;;;;;;;;;;21.70;37.50;;;;;;1587203;74;745;-58
2021/11/07 13:55:28;;;;;;;;;;;21.70;37.60;;;;;;1589425;74;1094;-55
2021/11/07 13:57:30;;;;;;;;;;;21.70;37.60;;;;;;1585589;74;723;-59
2021/11/07 13:59:36;;;;;;;;;;;21.70;37.50;;;;;;1581513;74;1936;-55
2021/11/07 14:01:38;;;;;;;;;;;21.70;37.60;;;;;;1584130;74;711;-58
2021/11/07 14:03:41;;;;;;;;;;;21.70;37.70;;;;;;1575383;74;748;-59
2021/11/07 14:05:59;;;;;;;;;;;21.70;37.80;;;;;;1587789;74;1159;-56
2021/11/07 14:08:05;;;;;;;;;;;21.70;38.00;;;;;;1577251;74;1691;-58
2021/11/07 14:10:11;;;;;;;;;;;21.70;37.30;;;;;;1584740;74;661;-54
2021/11/07 14:12:16;;;;;;;;;;;21.70;36.70;;;;;;1589015;73;668;-58